createdAt,value
2022-12-25T00:00:00.128Z,18.7
2022-12-25T00:05:00.139Z,24.6
2022-12-25T00:10:00.103Z,24.5
2022-12-25T00:15:00.109Z,20.3
2022-12-25T00:20:00.135Z,22.5
2022-12-25T00:25:00.158Z,16.6
2022-12-25T00:30:00.113Z,16.6
2022-12-25T00:35:00.196Z,19.6
2022-12-25T00:40:00.139Z,24.7
2022-12-25T00:45:00.135Z,19.2
2022-12-25T00:50:00.134Z,23.3
2022-12-25T00:55:00.118Z,21.2
2022-12-25T01:00:00.139Z,21.2
2022-12-25T01:05:00.147Z,23.6
2022-12-25T01:10:00.114Z,21.5
2022-12-25T01:15:00.111Z,18.4
2022-12-25T01:20:00.154Z,18.5
2022-12-25T01:25:00.095Z,16.8
2022-12-25T01:30:00.150Z,16.8
2022-12-25T01:35:00.107Z,21
2022-12-25T01:40:00.155Z,19.8
2022-12-25T01:45:00.109Z,20.8
2022-12-25T01:50:00.178Z,17.4
2022-12-25T01:55:00.150Z,17.8
2022-12-25T02:00:00.124Z,17.8
2022-12-25T02:05:00.134Z,22.5
2022-12-25T02:10:00.130Z,21.1
2022-12-25T02:15:05.169Z,19.3
2022-12-25T02:20:00.151Z,16.9
2022-12-25T02:25:00.138Z,17.4
2022-12-25T02:30:00.166Z,17.4
2022-12-25T02:35:00.123Z,17.9
2022-12-25T02:40:00.121Z,26.9
2022-12-25T02:45:00.152Z,17.2
2022-12-25T02:50:00.111Z,18
2022-12-25T02:55:00.103Z,17.8
2022-12-25T03:00:00.114Z,17.8
2022-12-25T03:05:00.171Z,13.2
2022-12-25T03:10:00.104Z,21
2022-12-25T03:15:00.136Z,16.3
2022-12-25T03:20:00.165Z,14.3
2022-12-25T03:25:00.375Z,12.2
2022-12-25T03:30:00.116Z,12.2
2022-12-25T03:35:00.125Z,12.3
2022-12-25T03:40:00.175Z,10.8
2022-12-25T03:45:00.137Z,8.2
2022-12-25T03:50:00.200Z,9
2022-12-25T03:55:00.167Z,11.8
2022-12-25T04:00:00.143Z,11.8
2022-12-25T04:05:00.133Z,16.6
2022-12-25T04:10:00.115Z,19.1
2022-12-25T04:15:00.109Z,27.5
2022-12-25T04:20:00.127Z,11.9
2022-12-25T04:25:00.103Z,13.7
2022-12-25T04:30:00.106Z,13.7
2022-12-25T04:35:00.137Z,12.2
2022-12-25T04:40:00.111Z,10.9
2022-12-25T04:45:00.119Z,11.7
2022-12-25T04:50:00.169Z,14.8
2022-12-25T04:55:00.107Z,14.8
2022-12-25T05:00:00.124Z,14.8
2022-12-25T05:05:00.150Z,15.3
2022-12-25T05:10:00.129Z,10.7
2022-12-25T05:15:00.152Z,13
2022-12-25T05:20:00.155Z,15.7
2022-12-25T05:25:00.106Z,16.9
2022-12-25T05:30:00.125Z,16.9
2022-12-25T05:35:00.194Z,16.7
2022-12-25T05:40:00.128Z,15.7
2022-12-25T05:45:00.096Z,20.2
2022-12-25T05:50:00.096Z,13.1
2022-12-25T05:55:00.110Z,22.3
2022-12-25T06:00:00.114Z,22.3
2022-12-25T06:05:00.115Z,12
2022-12-25T06:10:00.121Z,12.8
2022-12-25T06:15:00.142Z,12.6
2022-12-25T06:20:00.117Z,17.5
2022-12-25T06:25:00.161Z,10.9
2022-12-25T06:30:00.100Z,10.9
2022-12-25T06:35:00.183Z,16.6
2022-12-25T06:40:00.114Z,13.9
2022-12-25T06:45:00.122Z,15.2
2022-12-25T06:50:00.155Z,14.4
2022-12-25T06:55:00.101Z,14.9
2022-12-25T07:00:00.161Z,14.9
2022-12-25T07:05:00.139Z,11.7
2022-12-25T07:10:00.136Z,13
2022-12-25T07:15:00.119Z,13.7
2022-12-25T07:20:00.126Z,14.8
2022-12-25T07:25:00.195Z,13
2022-12-25T07:30:00.129Z,13
2022-12-25T07:35:00.123Z,13.8
2022-12-25T07:40:00.159Z,11.5
2022-12-25T07:45:00.139Z,10.5
2022-12-25T07:50:00.120Z,13.7
2022-12-25T07:55:00.115Z,14.5
2022-12-25T08:00:00.115Z,14.5
2022-12-25T08:05:00.176Z,9.9
2022-12-25T08:10:00.105Z,12.3
2022-12-25T08:15:00.124Z,14.8
2022-12-25T08:20:00.140Z,14.4
2022-12-25T08:25:00.148Z,15.5
2022-12-25T08:30:00.113Z,15.5
2022-12-25T08:35:00.162Z,11.7
2022-12-25T08:40:00.103Z,14.8
2022-12-25T08:45:00.142Z,13.9
2022-12-25T08:50:00.105Z,12.5
2022-12-25T08:55:00.118Z,12.7
2022-12-25T09:00:00.118Z,12.7
2022-12-25T09:05:00.138Z,17.3
2022-12-25T09:10:00.097Z,12.4
2022-12-25T09:15:00.117Z,15.1
2022-12-25T09:20:00.129Z,15.6
2022-12-25T09:25:00.327Z,16.1
2022-12-25T09:30:00.108Z,16.1
2022-12-25T09:35:00.112Z,16.8
2022-12-25T09:40:00.139Z,16.4
2022-12-25T09:45:00.099Z,16.8
2022-12-25T09:50:00.120Z,22
2022-12-25T09:55:00.107Z,17.2
2022-12-25T10:00:00.091Z,17.2
2022-12-25T10:05:00.134Z,18.2
2022-12-25T10:10:00.085Z,15.4
2022-12-25T10:15:00.108Z,13
2022-12-25T10:20:00.190Z,16.3
2022-12-25T10:25:00.139Z,16.7
2022-12-25T10:30:00.138Z,16.7
2022-12-25T10:35:00.132Z,16.2
2022-12-25T10:40:00.117Z,14.9
2022-12-25T10:45:00.103Z,17.3
2022-12-25T10:50:00.136Z,16.5
2022-12-25T10:55:00.107Z,17.7
2022-12-25T11:00:00.133Z,17.7
2022-12-25T11:05:00.138Z,18
2022-12-25T11:10:04.548Z,17.3
2022-12-25T11:15:00.096Z,16.6
2022-12-25T11:20:00.110Z,17.2
2022-12-25T11:25:00.106Z,18.3
2022-12-25T11:30:00.171Z,18.3
2022-12-25T11:35:00.130Z,19.1
2022-12-25T11:40:00.130Z,19.8
2022-12-25T11:45:00.120Z,17.5
2022-12-25T11:50:00.825Z,19.3
2022-12-25T11:55:00.125Z,19
2022-12-25T12:00:00.122Z,19
2022-12-25T12:05:00.111Z,19.6
2022-12-25T12:10:00.101Z,22
2022-12-25T12:15:00.123Z,19.9
2022-12-25T12:20:00.191Z,19.7
2022-12-25T12:25:00.168Z,20
2022-12-25T12:30:00.130Z,20
2022-12-25T12:35:00.117Z,18.2
2022-12-25T12:40:00.119Z,17.2
2022-12-25T12:45:00.102Z,17.7
2022-12-25T12:50:00.223Z,15.7
2022-12-25T12:55:00.130Z,16.3
2022-12-25T13:00:05.062Z,16.3
2022-12-25T13:05:00.152Z,17.3
2022-12-25T13:10:00.177Z,18.3
2022-12-25T13:15:00.179Z,14.8
2022-12-25T13:20:00.262Z,15
2022-12-25T13:25:00.125Z,16
2022-12-25T13:30:00.201Z,16
2022-12-25T13:35:00.145Z,9.1
2022-12-25T13:40:00.209Z,8.4
2022-12-25T13:45:00.132Z,9.4
2022-12-25T13:50:00.142Z,8.4
2022-12-25T13:55:00.127Z,8.2
2022-12-25T14:00:00.096Z,8.2
2022-12-25T14:05:00.114Z,9.4
2022-12-25T14:10:00.115Z,9.2
2022-12-25T14:15:00.127Z,9.5
2022-12-25T14:20:05.947Z,9.7
2022-12-25T14:25:00.109Z,9.8
2022-12-25T14:30:00.105Z,9.8
2022-12-25T14:35:00.114Z,9.1
2022-12-25T14:40:00.110Z,10.5
2022-12-25T14:45:00.093Z,9.2
2022-12-25T14:50:00.145Z,12.1
2022-12-25T14:55:00.089Z,8.3
2022-12-25T15:00:00.130Z,8.3
2022-12-25T15:05:00.226Z,11.6
2022-12-25T15:10:28.925Z,10.4
2022-12-25T15:15:00.124Z,12.4
2022-12-25T15:20:00.147Z,11.1
2022-12-25T15:25:02.349Z,9.4
2022-12-25T15:30:09.499Z,9.4
2022-12-25T15:35:00.134Z,13.8
2022-12-25T15:40:00.110Z,10.5
2022-12-25T15:45:00.148Z,9.3
2022-12-25T15:50:00.102Z,10.8
2022-12-25T15:55:00.125Z,12.2
2022-12-25T16:00:00.132Z,12.2
2022-12-25T16:05:02.099Z,14
2022-12-25T16:10:00.139Z,14.5
2022-12-25T16:15:00.108Z,12.2
2022-12-25T16:20:00.244Z,11.2
2022-12-25T16:25:00.121Z,13.1
2022-12-25T16:30:00.145Z,13.1
2022-12-25T16:35:00.119Z,11.7
2022-12-25T16:40:00.192Z,13.8
2022-12-25T16:45:00.112Z,11.9
2022-12-25T16:50:00.184Z,11.6
2022-12-25T16:55:00.105Z,10.6
2022-12-25T17:00:00.102Z,10.6
2022-12-25T17:05:00.118Z,12.3
2022-12-25T17:10:00.102Z,13.1
2022-12-25T17:15:00.130Z,15.6
2022-12-25T17:20:00.133Z,13.4
2022-12-25T17:25:00.119Z,10.2
2022-12-25T17:30:00.113Z,10.2
2022-12-25T17:35:00.159Z,12.1
2022-12-25T17:40:00.107Z,11.8
2022-12-25T17:45:00.116Z,12.9
2022-12-25T17:50:00.147Z,11.6
2022-12-25T17:55:00.148Z,12.5
2022-12-25T18:00:00.145Z,12.5
2022-12-25T18:05:00.146Z,10.7
2022-12-25T18:10:00.122Z,10
2022-12-25T18:15:00.107Z,10.9
2022-12-25T18:20:00.187Z,9.7
2022-12-25T18:25:00.104Z,11.9
2022-12-25T18:30:00.114Z,11.9
2022-12-25T18:35:00.138Z,13
2022-12-25T18:40:00.093Z,11.4
2022-12-25T18:45:00.117Z,13.2
2022-12-25T18:50:00.117Z,10.2
2022-12-25T18:55:00.119Z,11.4
2022-12-25T19:00:00.140Z,11.4
2022-12-25T19:05:00.138Z,12.8
2022-12-25T19:10:00.133Z,16.1
2022-12-25T19:15:00.116Z,16
2022-12-25T19:20:00.176Z,15.7
2022-12-25T19:25:00.162Z,15
2022-12-25T19:30:00.125Z,15
2022-12-25T19:35:00.142Z,14.7
2022-12-25T19:40:00.179Z,16.7
2022-12-25T19:45:00.123Z,17.6
2022-12-25T19:50:02.829Z,18.4
2022-12-25T19:55:00.133Z,18.4
2022-12-25T20:00:00.138Z,18.4
2022-12-25T20:05:00.166Z,21
2022-12-25T20:10:00.171Z,19.5
2022-12-25T20:15:00.146Z,18.9
2022-12-25T20:20:00.131Z,21.1
2022-12-25T20:25:00.145Z,19.2
2022-12-25T20:30:00.104Z,19.2
2022-12-25T20:35:00.123Z,18.1
2022-12-25T20:40:00.176Z,23.3
2022-12-25T20:45:00.113Z,20.8
2022-12-25T20:50:00.141Z,18.5
2022-12-25T20:55:00.108Z,18.5
2022-12-25T21:00:00.135Z,18.5
2022-12-25T21:05:00.142Z,19.7
2022-12-25T21:10:00.128Z,19.3
2022-12-25T21:15:00.125Z,18.5
2022-12-25T21:20:00.111Z,18.4
2022-12-25T21:25:00.150Z,17.8
2022-12-25T21:30:00.130Z,17.8
2022-12-25T21:35:00.144Z,17.5
2022-12-25T21:40:00.123Z,16.7
2022-12-25T21:45:00.115Z,17.7
2022-12-25T21:50:00.135Z,15.6
2022-12-25T21:55:00.149Z,16.3
2022-12-25T22:00:00.101Z,16.3
2022-12-25T22:05:00.120Z,14.7
2022-12-25T22:10:00.107Z,11.7
2022-12-25T22:15:00.108Z,14.8
2022-12-25T22:20:00.146Z,13.7
2022-12-25T22:25:00.129Z,13.4
2022-12-25T22:30:00.110Z,13.4
2022-12-25T22:35:00.137Z,20.7
2022-12-25T22:40:00.135Z,15.1
2022-12-25T22:45:00.115Z,13.9
2022-12-25T22:50:00.142Z,11.6
2022-12-25T22:55:00.150Z,10.3
2022-12-25T23:00:00.141Z,10.3
2022-12-25T23:05:00.178Z,9.5
2022-12-25T23:10:00.128Z,11.8
2022-12-25T23:15:00.133Z,8.4
2022-12-25T23:20:00.144Z,8.9
2022-12-25T23:25:00.127Z,9.4
2022-12-25T23:30:00.127Z,9.4
2022-12-25T23:35:00.171Z,9
2022-12-25T23:40:00.151Z,8.4
2022-12-25T23:45:00.134Z,9.1
2022-12-25T23:50:00.220Z,8.8
2022-12-25T23:55:00.135Z,10.3
